Time,TemperatureF,DewpointF,PressureIn,WindDirection,WindDirectionDegrees,WindSpeedMPH,WindSpeedGustMPH,Humidity,HourlyPrecipIn,Conditions,Clouds,dailyrainin,SoftwareType,DateUTC
2013-12-27 00:01:00,46.0,38.5,30.36,NE,34,3.0,5.0,75,0.00,,SKC,0.00,VWS V14.00,2013-12-27 06:01:00,
2013-12-27 00:06:00,46.0,38.5,30.35,NE,34,3.0,4.0,75,0.00,,SKC,0.00,VWS V14.00,2013-12-27 06:06:00,
2013-12-27 00:11:00,45.8,38.3,30.35,NE,34,3.0,5.0,75,0.00,,SKC,0.00,VWS V14.00,2013-12-27 06:11:00,
2013-12-27 00:16:00,45.9,38.8,30.34,NE,34,3.0,6.0,76,0.00,,SKC,0.00,VWS V14.00,2013-12-27 06:16:00,
2013-12-27 00:21:00,45.9,38.8,30.34,NE,34,3.0,6.0,76,0.00,,SKC,0.00,VWS V14.00,2013-12-27 06:21:00,
2013-12-27 00:26:00,45.9,38.8,30.34,NE,34,2.0,6.0,76,0.00,,SKC,0.00,VWS V14.00,2013-12-27 06:26:00,
2013-12-27 00:31:00,46.0,38.5,30.34,NE,34,3.0,6.0,75,0.00,,SKC,0.00,VWS V14.00,2013-12-27 06:31:00,
2013-12-27 00:36:00,46.0,38.5,30.34,NE,34,4.0,6.0,75,0.00,,SKC,0.00,VWS V14.00,2013-12-27 06:36:00,
2013-12-27 00:41:00,46.0,38.5,30.34,NNE,29,2.0,6.0,75,0.00,,SKC,0.00,VWS V14.00,2013-12-27 06:41:00,
2013-12-27 00:46:00,45.9,38.4,30.34,NNE,29,3.0,6.0,75,0.00,,SKC,0.00,VWS V14.00,2013-12-27 06:46:00,
2013-12-27 00:51:00,45.8,38.7,30.34,NNE,30,4.0,6.0,76,0.00,,SKC,0.00,VWS V14.00,2013-12-27 06:51:00,
2013-12-27 00:56:00,45.7,38.2,30.34,NNE,30,3.0,6.0,75,0.00,,SKC,0.00,VWS V14.00,2013-12-27 06:56:00,
2013-12-27 01:01:00,45.7,38.2,30.34,NNE,30,3.0,6.0,75,0.00,,SKC,0.00,VWS V14.00,2013-12-27 07:01:00,
2013-12-27 01:06:00,45.5,38.0,30.34,NNE,30,2.0,4.0,75,0.00,,SKC,0.00,VWS V14.00,2013-12-27 07:06:00,
2013-12-27 01:11:00,45.4,38.3,30.34,NNE,30,3.0,5.0,76,0.00,,SKC,0.00,VWS V14.00,2013-12-27 07:11:00,
2013-12-27 01:16:00,45.3,38.2,30.33,NNE,30,2.0,5.0,76,0.00,,SKC,0.00,VWS V14.00,2013-12-27 07:16:00,
2013-12-27 01:21:00,45.2,38.1,30.33,NNE,30,2.0,5.0,76,0.00,,SKC,0.00,VWS V14.00,2013-12-27 07:21:00,
2013-12-27 01:26:00,45.2,38.4,30.33,NNE,30,4.0,5.0,77,0.00,,SKC,0.00,VWS V14.00,2013-12-27 07:26:00,
2013-12-27 01:31:00,45.1,38.3,30.34,NNE,30,4.0,5.0,77,0.00,,SKC,0.00,VWS V14.00,2013-12-27 07:31:00,
2013-12-27 01:36:00,45.2,38.4,30.34,NNE,30,4.0,5.0,77,0.00,,SKC,0.00,VWS V14.00,2013-12-27 07:36:00,
2013-12-27 01:41:00,45.1,38.3,30.34,NNE,30,1.0,5.0,77,0.00,,SKC,0.00,VWS V14.00,2013-12-27 07:41:00,
2013-12-27 01:46:00,45.1,38.3,30.34,NNE,29,4.0,5.0,77,0.00,,SKC,0.00,VWS V14.00,2013-12-27 07:46:00,
2013-12-27 01:51:00,45.2,38.4,30.34,NNE,31,2.0,6.0,77,0.00,,SKC,0.00,VWS V14.00,2013-12-27 07:51:00,
2013-12-27 01:56:00,45.2,38.4,30.34,NNE,31,3.0,6.0,77,0.00,,SKC,0.00,VWS V14.00,2013-12-27 07:56:00,
2013-12-27 02:01:00,45.3,38.5,30.34,NE,36,3.0,6.0,77,0.00,,SKC,0.00,VWS V14.00,2013-12-27 08:01:00,
2013-12-27 02:06:00,45.2,38.4,30.34,NE,38,3.0,5.0,77,0.00,,SKC,0.00,VWS V14.00,2013-12-27 08:06:00,
2013-12-27 02:11:00,45.2,38.4,30.33,NE,46,6.0,6.0,77,0.00,,SKC,0.00,VWS V14.00,2013-12-27 08:11:00,
2013-12-27 02:16:00,45.2,38.4,30.33,NNE,32,2.0,6.0,77,0.00,,SKC,0.00,VWS V14.00,2013-12-27 08:16:00,
2013-12-27 02:21:00,45.1,38.3,30.33,NE,34,2.0,6.0,77,0.00,,SKC,0.00,VWS V14.00,2013-12-27 08:21:00,
2013-12-27 02:26:00,45.1,38.3,30.33,NE,34,3.0,6.0,77,0.00,,SKC,0.00,VWS V14.00,2013-12-27 08:26:00,
2013-12-27 02:31:00,45.0,38.6,30.33,NE,34,3.0,6.0,78,0.00,,SKC,0.00,VWS V14.00,2013-12-27 08:31:00,
2013-12-27 02:36:00,44.9,38.5,30.34,NE,34,2.0,6.0,78,0.00,,SKC,0.00,VWS V14.00,2013-12-27 08:36:00,
2013-12-27 02:41:00,44.9,38.5,30.35,NE,34,2.0,6.0,78,0.00,,SKC,0.00,VWS V14.00,2013-12-27 08:41:00,
2013-12-27 02:46:00,44.8,38.4,30.35,NE,34,1.0,6.0,78,0.00,,SKC,0.00,VWS V14.00,2013-12-27 08:46:00,
2013-12-27 02:51:00,44.7,38.3,30.35,NE,34,0.0,6.0,78,0.00,,SKC,0.00,VWS V14.00,2013-12-27 08:51:00,
2013-12-27 02:56:00,44.7,38.3,30.35,NE,34,0.0,6.0,78,0.00,,SKC,0.00,VWS V14.00,2013-12-27 08:56:00,
2013-12-27 03:01:00,44.6,38.2,30.35,NE,34,0.0,6.0,78,0.00,,SKC,0.00,VWS V14.00,2013-12-27 09:01:00,
2013-12-27 03:06:00,44.6,38.2,30.35,NE,34,2.0,3.0,78,0.00,,SKC,0.00,VWS V14.00,2013-12-27 09:06:00,
2013-12-27 03:11:00,44.5,38.1,30.35,NE,34,2.0,4.0,78,0.00,,SKC,0.00,VWS V14.00,2013-12-27 09:11:00,
2013-12-27 03:16:00,44.4,38.0,30.35,NE,34,2.0,4.0,78,0.00,,SKC,0.00,VWS V14.00,2013-12-27 09:16:00,
2013-12-27 03:21:00,44.3,37.9,30.34,NE,34,2.0,4.0,78,0.00,,SKC,0.00,VWS V14.00,2013-12-27 09:21:00,
2013-12-27 03:26:00,44.3,37.9,30.34,NE,34,2.0,4.0,78,0.00,,SKC,0.00,VWS V14.00,2013-12-27 09:26:00,
2013-12-27 03:31:00,44.3,38.2,30.34,NE,34,3.0,4.0,79,0.00,,SKC,0.00,VWS V14.00,2013-12-27 09:31:00,
2013-12-27 03:36:00,44.2,38.1,30.34,NE,34,3.0,4.0,79,0.00,,SKC,0.00,VWS V14.00,2013-12-27 09:36:00,
2013-12-27 03:41:00,44.2,38.1,30.34,NE,34,4.0,5.0,79,0.00,,SKC,0.00,VWS V14.00,2013-12-27 09:41:00,
2013-12-27 03:46:00,44.2,38.1,30.34,NE,35,4.0,5.0,79,0.00,,SKC,0.00,VWS V14.00,2013-12-27 09:46:00,
2013-12-27 03:51:00,44.2,38.1,30.34,NE,35,3.0,5.0,79,0.00,,SKC,0.00,VWS V14.00,2013-12-27 09:51:00,
2013-12-27 03:56:00,44.2,38.1,30.34,NE,36,3.0,6.0,79,0.00,,SKC,0.00,VWS V14.00,2013-12-27 09:56:00,
2013-12-27 04:01:00,44.2,38.1,30.34,NE,37,2.0,6.0,79,0.00,,SKC,0.00,VWS V14.00,2013-12-27 10:01:00,
2013-12-27 04:06:00,44.2,38.1,30.34,NE,40,1.0,7.0,79,0.00,,SKC,0.00,VWS V14.00,2013-12-27 10:06:00,
2013-12-27 04:11:00,44.1,38.0,30.35,NE,40,2.0,7.0,79,0.00,,SKC,0.00,VWS V14.00,2013-12-27 10:11:00,
2013-12-27 04:16:00,44.1,38.0,30.35,NE,40,0.0,7.0,79,0.00,,SKC,0.00,VWS V14.00,2013-12-27 10:16:00,
2013-12-27 04:21:00,44.0,38.2,30.34,NE,40,2.0,7.0,80,0.00,,SKC,0.00,VWS V14.00,2013-12-27 10:21:00,
2013-12-27 04:26:00,43.9,38.1,30.34,NE,40,1.0,7.0,80,0.00,,SKC,0.00,VWS V14.00,2013-12-27 10:26:00,
2013-12-27 04:31:00,43.9,38.1,30.34,NE,40,2.0,7.0,80,0.00,,SKC,0.00,VWS V14.00,2013-12-27 10:31:00,
2013-12-27 04:36:00,43.8,38.0,30.34,NE,40,3.0,7.0,80,0.00,,SKC,0.00,VWS V14.00,2013-12-27 10:36:00,
2013-12-27 04:41:00,43.8,38.0,30.34,NE,38,3.0,7.0,80,0.00,,SKC,0.00,VWS V14.00,2013-12-27 10:41:00,
2013-12-27 04:46:00,43.8,38.0,30.34,NE,40,4.0,7.0,80,0.00,,SKC,0.00,VWS V14.00,2013-12-27 10:46:00,
2013-12-27 04:51:00,43.8,38.0,30.34,NE,40,3.0,7.0,80,0.00,,SKC,0.00,VWS V14.00,2013-12-27 10:51:00,
2013-12-27 04:56:00,43.9,38.1,30.34,NE,40,4.0,7.0,80,0.00,,SKC,0.00,VWS V14.00,2013-12-27 10:56:00,
2013-12-27 05:01:00,44.0,38.2,30.34,NE,35,2.0,7.0,80,0.00,,SKC,0.00,VWS V14.00,2013-12-27 11:01:00,
2013-12-27 05:06:00,44.0,38.2,30.34,NE,38,1.0,7.0,80,0.00,,SKC,0.00,VWS V14.00,2013-12-27 11:06:00,
2013-12-27 05:11:00,44.0,38.2,30.34,NE,52,4.0,7.0,80,0.00,,SKC,0.00,VWS V14.00,2013-12-27 11:11:00,
2013-12-27 05:16:00,44.0,38.2,30.34,NE,52,4.0,7.0,80,0.00,,SKC,0.00,VWS V14.00,2013-12-27 11:16:00,
2013-12-27 05:21:00,44.0,38.2,30.34,NE,52,4.0,7.0,80,0.00,,SKC,0.00,VWS V14.00,2013-12-27 11:21:00,
2013-12-27 05:26:00,44.0,38.2,30.34,NE,52,4.0,7.0,80,0.00,,SKC,0.00,VWS V14.00,2013-12-27 11:26:00,
2013-12-27 05:31:00,44.0,38.2,30.34,NE,52,4.0,7.0,80,0.00,,SKC,0.00,VWS V14.00,2013-12-27 11:31:00,
2013-12-27 05:36:00,44.0,38.2,30.35,NE,52,4.0,7.0,80,0.00,,SKC,0.00,VWS V14.00,2013-12-27 11:36:00,
2013-12-27 05:41:00,44.0,38.2,30.35,NE,52,4.0,7.0,80,0.00,,SKC,0.00,VWS V14.00,2013-12-27 11:41:00,
2013-12-27 05:46:00,44.0,38.2,30.35,NE,52,4.0,7.0,80,0.00,,SKC,0.00,VWS V14.00,2013-12-27 11:46:00,
2013-12-27 05:51:00,44.0,38.2,30.35,NE,52,4.0,7.0,80,0.00,,SKC,0.00,VWS V14.00,2013-12-27 11:51:00,
2013-12-27 05:56:00,44.0,38.2,30.35,NE,52,4.0,7.0,80,0.00,,SKC,0.00,VWS V14.00,2013-12-27 11:56:00,
2013-12-27 06:01:00,44.0,38.2,30.35,NE,52,4.0,7.0,80,0.00,,SKC,0.00,VWS V14.00,2013-12-27 12:01:00,
2013-12-27 06:06:00,44.0,38.2,30.35,NE,52,4.0,4.0,80,0.00,,SKC,0.00,VWS V14.00,2013-12-27 12:06:00,
2013-12-27 06:11:00,44.0,38.2,30.36,NE,52,4.0,4.0,80,0.00,,SKC,0.00,VWS V14.00,2013-12-27 12:11:00,
2013-12-27 06:16:00,44.0,38.2,30.37,NE,52,4.0,4.0,80,0.00,,SKC,0.00,VWS V14.00,2013-12-27 12:16:00,
2013-12-27 06:21:00,44.0,38.2,30.37,NE,52,4.0,4.0,80,0.00,,SKC,0.00,VWS V14.00,2013-12-27 12:21:00,
2013-12-27 06:26:00,44.0,38.2,30.37,NE,52,4.0,4.0,80,0.00,,SKC,0.00,VWS V14.00,2013-12-27 12:26:00,
2013-12-27 06:31:00,44.0,38.2,30.37,NE,52,4.0,4.0,80,0.00,,SKC,0.00,VWS V14.00,2013-12-27 12:31:00,
2013-12-27 06:36:00,44.0,38.2,30.36,NE,52,4.0,4.0,80,0.00,,SKC,0.00,VWS V14.00,2013-12-27 12:36:00,
2013-12-27 06:41:00,44.0,38.2,30.37,NE,52,4.0,4.0,80,0.00,,SKC,0.00,VWS V14.00,2013-12-27 12:41:00,
2013-12-27 06:46:00,44.0,38.2,30.37,NE,52,4.0,4.0,80,0.00,,SKC,0.00,VWS V14.00,2013-12-27 12:46:00,
2013-12-27 06:51:00,44.0,38.2,30.37,NE,52,4.0,4.0,80,0.00,,SKC,0.00,VWS V14.00,2013-12-27 12:51:00,
2013-12-27 06:56:00,44.0,38.2,30.37,NE,52,4.0,4.0,80,0.00,,SKC,0.00,VWS V14.00,2013-12-27 12:56:00,
2013-12-27 07:01:00,44.0,38.2,30.38,NE,52,4.0,4.0,80,0.00,,SKC,0.00,VWS V14.00,2013-12-27 13:01:00,
2013-12-27 07:06:00,44.0,38.2,30.38,NE,52,4.0,4.0,80,0.00,,SKC,0.00,VWS V14.00,2013-12-27 13:06:00,
2013-12-27 07:11:00,44.0,38.2,30.38,NE,52,4.0,4.0,80,0.00,,SKC,0.00,VWS V14.00,2013-12-27 13:11:00,
2013-12-27 07:16:00,44.0,38.2,30.38,NE,52,4.0,4.0,80,0.00,,SKC,0.00,VWS V14.00,2013-12-27 13:16:00,
2013-12-27 07:21:00,44.0,38.2,30.38,NE,52,4.0,4.0,80,0.00,,SKC,0.00,VWS V14.00,2013-12-27 13:21:00,
2013-12-27 07:26:00,44.0,38.2,30.38,NE,52,4.0,4.0,80,0.00,,SKC,0.00,VWS V14.00,2013-12-27 13:26:00,
2013-12-27 07:31:00,44.0,38.2,30.39,NE,52,4.0,4.0,80,0.00,,SKC,0.00,VWS V14.00,2013-12-27 13:31:00,
2013-12-27 07:36:00,44.0,38.2,30.39,NE,52,4.0,4.0,80,0.00,,SKC,0.00,VWS V14.00,2013-12-27 13:36:00,
2013-12-27 07:41:00,44.0,38.2,30.39,NE,52,4.0,4.0,80,0.00,,SKC,0.00,VWS V14.00,2013-12-27 13:41:00,
2013-12-27 07:46:00,44.0,38.2,30.40,NE,52,4.0,4.0,80,0.00,,SKC,0.00,VWS V14.00,2013-12-27 13:46:00,
2013-12-27 07:51:00,43.5,38.4,30.40,NE,38,1.0,4.0,82,0.00,,SKC,0.00,VWS V14.00,2013-12-27 13:51:00,
2013-12-27 07:56:00,43.7,38.3,30.40,NE,38,1.0,4.0,81,0.00,,SKC,0.00,VWS V14.00,2013-12-27 13:56:00,
2013-12-27 08:01:00,43.8,38.4,30.40,NE,38,0.0,4.0,81,0.00,,SKC,0.00,VWS V14.00,2013-12-27 14:01:00,
2013-12-27 08:06:00,44.0,38.2,30.40,NE,38,1.0,2.0,80,0.00,,SKC,0.00,VWS V14.00,2013-12-27 14:06:00,
2013-12-27 08:11:00,44.1,38.3,30.41,NE,38,0.0,2.0,80,0.00,,SKC,0.00,VWS V14.00,2013-12-27 14:11:00,
2013-12-27 08:16:00,44.3,38.5,30.41,NE,38,2.0,3.0,80,0.00,,SKC,0.00,VWS V14.00,2013-12-27 14:16:00,
2013-12-27 08:21:00,44.5,38.4,30.41,NE,38,3.0,4.0,79,0.00,,SKC,0.00,VWS V14.00,2013-12-27 14:21:00,
2013-12-27 08:26:00,44.7,38.3,30.41,NE,38,3.0,4.0,78,0.00,,SKC,0.00,VWS V14.00,2013-12-27 14:26:00,
2013-12-27 08:31:00,45.0,38.6,30.41,NE,38,2.0,4.0,78,0.00,,SKC,0.00,VWS V14.00,2013-12-27 14:31:00,
2013-12-27 08:36:00,45.2,38.8,30.41,NE,38,4.0,5.0,78,0.00,,SKC,0.00,VWS V14.00,2013-12-27 14:36:00,
2013-12-27 08:41:00,45.3,38.5,30.41,NE,38,1.0,5.0,77,0.00,,SKC,0.00,VWS V14.00,2013-12-27 14:41:00,
2013-12-27 08:46:00,45.5,38.4,30.42,NE,38,2.0,5.0,76,0.00,,SKC,0.00,VWS V14.00,2013-12-27 14:46:00,
2013-12-27 08:51:00,45.5,38.4,30.41,NE,40,2.0,8.0,76,0.00,,SKC,0.00,VWS V14.00,2013-12-27 14:51:00,
2013-12-27 08:56:00,45.6,38.2,30.41,NE,40,3.0,8.0,75,0.00,,SKC,0.00,VWS V14.00,2013-12-27 14:56:00,
2013-12-27 09:01:00,45.7,38.2,30.42,NE,40,3.0,8.0,75,0.00,,SKC,0.00,VWS V14.00,2013-12-27 15:01:00,
2013-12-27 09:06:00,45.8,38.3,30.43,NE,40,3.0,5.0,75,0.00,,SKC,0.00,VWS V14.00,2013-12-27 15:06:00,
2013-12-27 09:11:00,46.0,38.5,30.43,NNE,29,5.0,5.0,75,0.00,,SKC,0.00,VWS V14.00,2013-12-27 15:11:00,
2013-12-27 09:16:00,46.0,38.2,30.44,NE,41,3.0,7.0,74,0.00,,SKC,0.00,VWS V14.00,2013-12-27 15:16:00,
2013-12-27 09:21:00,46.1,38.3,30.44,NE,41,4.0,7.0,74,0.00,,SKC,0.00,VWS V14.00,2013-12-27 15:21:00,
2013-12-27 09:26:00,46.3,38.8,30.44,NE,41,2.0,7.0,75,0.00,,SKC,0.00,VWS V14.00,2013-12-27 15:26:00,
2013-12-27 09:31:00,46.3,38.5,30.43,NE,37,5.0,7.0,74,0.00,,SKC,0.00,VWS V14.00,2013-12-27 15:31:00,
2013-12-27 09:36:00,46.4,38.2,30.44,NE,35,4.0,7.0,73,0.00,,SKC,0.00,VWS V14.00,2013-12-27 15:36:00,
2013-12-27 09:41:00,46.4,38.2,30.43,NE,41,4.0,8.0,73,0.00,,SKC,0.00,VWS V14.00,2013-12-27 15:41:00,
2013-12-27 09:45:00,46.5,38.3,30.43,NE,42,1.0,8.0,73,0.00,,SKC,0.00,VWS V14.00,2013-12-27 15:45:00,
2013-12-27 09:50:00,46.7,38.9,30.43,NE,41,4.0,8.0,74,0.00,,SKC,0.00,VWS V14.00,2013-12-27 15:50:00,
2013-12-27 09:55:00,46.8,38.6,30.44,NE,42,3.0,8.0,73,0.00,,SKC,0.00,VWS V14.00,2013-12-27 15:55:00,
2013-12-27 10:00:00,47.0,38.5,30.43,NE,49,3.0,8.0,72,0.00,,SKC,0.00,VWS V14.00,2013-12-27 16:00:00,
2013-12-27 10:05:00,47.2,38.7,30.44,NE,38,1.0,5.0,72,0.00,,SKC,0.00,VWS V14.00,2013-12-27 16:05:00,
2013-12-27 10:10:00,47.4,38.5,30.44,NE,41,4.0,6.0,71,0.00,,SKC,0.00,VWS V14.00,2013-12-27 16:10:00,
2013-12-27 10:15:00,47.5,38.6,30.44,NE,39,4.0,6.0,71,0.00,,SKC,0.00,VWS V14.00,2013-12-27 16:15:00,
2013-12-27 10:20:00,47.7,38.8,30.44,NE,41,4.0,6.0,71,0.00,,SKC,0.00,VWS V14.00,2013-12-27 16:20:00,
2013-12-27 10:25:00,47.8,38.5,30.44,NE,42,3.0,6.0,70,0.00,,SKC,0.00,VWS V14.00,2013-12-27 16:25:00,
2013-12-27 10:30:00,47.9,38.6,30.43,NE,44,5.0,6.0,70,0.00,,SKC,0.00,VWS V14.00,2013-12-27 16:30:00,
2013-12-27 10:35:00,48.1,39.2,30.43,NE,44,2.0,7.0,71,0.00,,SKC,0.00,VWS V14.00,2013-12-27 16:35:00,
2013-12-27 10:40:00,48.2,38.5,30.43,NE,45,6.0,7.0,69,0.00,,SKC,0.00,VWS V14.00,2013-12-27 16:40:00,
2013-12-27 10:45:00,48.4,39.1,30.42,NE,46,3.0,7.0,70,0.00,,SKC,0.00,VWS V14.00,2013-12-27 16:45:00,
2013-12-27 10:50:00,48.4,38.3,30.42,NE,46,2.0,7.0,68,0.00,,SKC,0.00,VWS V14.00,2013-12-27 16:50:00,
2013-12-27 10:55:00,48.5,38.4,30.42,ENE,63,7.0,8.0,68,0.00,,SKC,0.00,VWS V14.00,2013-12-27 16:55:00,
2013-12-27 11:00:00,48.7,39.0,30.41,NE,53,3.0,8.0,69,0.00,,SKC,0.00,VWS V14.00,2013-12-27 17:00:00,
2013-12-27 11:05:00,48.8,39.1,30.41,NE,44,4.0,8.0,69,0.00,,SKC,0.00,VWS V14.00,2013-12-27 17:05:00,
2013-12-27 11:10:00,48.9,38.8,30.40,NE,40,3.0,10.0,68,0.00,,SKC,0.00,VWS V14.00,2013-12-27 17:10:00,
2013-12-27 11:15:00,49.0,38.9,30.40,NE,55,4.0,10.0,68,0.00,,SKC,0.00,VWS V14.00,2013-12-27 17:15:00,
2013-12-27 11:20:00,49.2,39.1,30.39,ENE,65,4.0,10.0,68,0.00,,SKC,0.00,VWS V14.00,2013-12-27 17:20:00,
2013-12-27 11:25:00,49.6,39.9,30.38,NE,55,5.0,10.0,69,0.00,,SKC,0.00,VWS V14.00,2013-12-27 17:25:00,
2013-12-27 11:30:00,49.7,39.2,30.38,NE,47,5.0,12.0,67,0.00,,SKC,0.00,VWS V14.00,2013-12-27 17:30:00,
2013-12-27 11:35:00,49.9,39.4,30.37,NE,37,8.0,12.0,67,0.00,,SKC,0.00,VWS V14.00,2013-12-27 17:35:00,
2013-12-27 11:40:00,50.0,38.7,30.37,NE,42,8.0,16.0,65,0.00,,SKC,0.00,VWS V14.00,2013-12-27 17:40:00,
2013-12-27 11:45:00,50.2,39.3,30.37,NE,42,4.0,16.0,66,0.00,,SKC,0.00,VWS V14.00,2013-12-27 17:45:00,
2013-12-27 11:50:00,50.3,39.0,30.37,NE,36,7.0,16.0,65,0.00,,SKC,0.00,VWS V14.00,2013-12-27 17:50:00,
2013-12-27 11:55:00,50.4,39.1,30.36,NNE,23,6.0,16.0,65,0.00,,SKC,0.00,VWS V14.00,2013-12-27 17:55:00,
2013-12-27 12:00:00,50.7,39.8,30.35,NE,52,7.0,16.0,66,0.00,,SKC,0.00,VWS V14.00,2013-12-27 18:00:00,
2013-12-27 12:05:00,50.9,39.2,30.35,NE,40,5.0,12.0,64,0.00,,SKC,0.00,VWS V14.00,2013-12-27 18:05:00,
2013-12-27 12:10:00,51.2,38.6,30.35,NE,52,11.0,12.0,62,0.00,,SKC,0.00,VWS V14.00,2013-12-27 18:10:00,
2013-12-27 12:15:00,51.5,38.5,30.35,NE,48,4.0,12.0,61,0.00,,SKC,0.00,VWS V14.00,2013-12-27 18:15:00,
2013-12-27 12:20:00,51.8,38.8,30.35,NE,42,6.0,12.0,61,0.00,,SKC,0.00,VWS V14.00,2013-12-27 18:20:00,
2013-12-27 12:25:00,51.9,38.5,30.34,ENE,57,8.0,12.0,60,0.00,,SKC,0.00,VWS V14.00,2013-12-27 18:25:00,
2013-12-27 12:30:00,52.1,38.2,30.34,NE,36,6.0,12.0,59,0.00,,SKC,0.00,VWS V14.00,2013-12-27 18:30:00,
2013-12-27 12:35:00,52.1,37.8,30.33,NE,38,8.0,12.0,58,0.00,,SKC,0.00,VWS V14.00,2013-12-27 18:35:00,
2013-12-27 12:40:00,52.2,37.9,30.33,NE,34,8.0,12.0,58,0.00,,SKC,0.00,VWS V14.00,2013-12-27 18:40:00,
2013-12-27 12:45:00,52.3,37.5,30.34,NE,45,3.0,12.0,57,0.00,,SKC,0.00,VWS V14.00,2013-12-27 18:45:00,
2013-12-27 12:50:00,52.4,38.1,30.34,NNE,30,4.0,12.0,58,0.00,,SKC,0.00,VWS V14.00,2013-12-27 18:50:00,
2013-12-27 12:55:00,52.4,37.2,30.34,NNE,26,4.0,12.0,56,0.00,,SKC,0.00,VWS V14.00,2013-12-27 18:55:00,
2013-12-27 13:00:00,52.3,36.6,30.34,NNE,29,8.0,12.0,55,0.00,,SKC,0.00,VWS V14.00,2013-12-27 19:00:00,
2013-12-27 13:05:00,52.3,36.6,30.34,NE,56,4.0,8.0,55,0.00,,SKC,0.00,VWS V14.00,2013-12-27 19:05:00,
2013-12-27 13:10:00,52.3,36.6,30.34,NE,34,3.0,8.0,55,0.00,,SKC,0.00,VWS V14.00,2013-12-27 19:10:00,
2013-12-27 13:15:00,52.3,37.1,30.33,NE,38,4.0,8.0,56,0.00,,SKC,0.00,VWS V14.00,2013-12-27 19:15:00,
2013-12-27 13:20:00,52.4,37.2,30.33,NE,39,4.0,8.0,56,0.00,,SKC,0.00,VWS V14.00,2013-12-27 19:20:00,
2013-12-27 13:25:00,52.4,37.2,30.33,NE,35,2.0,8.0,56,0.00,,SKC,0.00,VWS V14.00,2013-12-27 19:25:00,
2013-12-27 13:30:00,52.5,38.2,30.33,NE,34,2.0,8.0,58,0.00,,SKC,0.00,VWS V14.00,2013-12-27 19:30:00,
2013-12-27 13:35:00,52.5,38.2,30.32,NNE,33,2.0,8.0,58,0.00,,SKC,0.00,VWS V14.00,2013-12-27 19:35:00,
2013-12-27 13:40:00,52.4,38.1,30.31,NNE,17,7.0,8.0,58,0.00,,SKC,0.00,VWS V14.00,2013-12-27 19:40:00,
2013-12-27 13:45:00,52.4,38.5,30.30,NNE,22,4.0,8.0,59,0.00,,SKC,0.00,VWS V14.00,2013-12-27 19:45:00,
2013-12-27 13:50:00,52.4,37.6,30.30,NNE,12,6.0,8.0,57,0.00,,SKC,0.00,VWS V14.00,2013-12-27 19:50:00,
2013-12-27 13:55:00,52.3,38.4,30.30,NNE,19,6.0,8.0,59,0.00,,SKC,0.00,VWS V14.00,2013-12-27 19:55:00,
2013-12-27 14:00:00,52.2,38.3,30.30,North,5,4.0,10.0,59,0.00,,SKC,0.00,VWS V14.00,2013-12-27 20:00:00,
2013-12-27 14:05:00,52.1,38.7,30.30,NNE,19,4.0,8.0,60,0.00,,SKC,0.00,VWS V14.00,2013-12-27 20:05:00,
2013-12-27 14:10:00,52.1,38.7,30.30,NE,43,5.0,8.0,60,0.00,,SKC,0.00,VWS V14.00,2013-12-27 20:10:00,
2013-12-27 14:15:00,52.1,38.7,30.30,North,360,5.0,8.0,60,0.00,,SKC,0.00,VWS V14.00,2013-12-27 20:15:00,
2013-12-27 14:20:00,52.0,38.6,30.30,North,5,6.0,8.0,60,0.00,,SKC,0.00,VWS V14.00,2013-12-27 20:20:00,
2013-12-27 14:25:00,51.8,37.9,30.30,NNW,348,5.0,8.0,59,0.00,,SKC,0.00,VWS V14.00,2013-12-27 20:25:00,
2013-12-27 14:30:00,51.7,38.3,30.31,NE,40,4.0,8.0,60,0.00,,SKC,0.00,VWS V14.00,2013-12-27 20:30:00,
2013-12-27 14:35:00,51.8,38.8,30.31,NE,37,4.0,8.0,61,0.00,,SKC,0.00,VWS V14.00,2013-12-27 20:35:00,
2013-12-27 14:40:00,51.9,38.0,30.31,NE,34,5.0,8.0,59,0.00,,SKC,0.00,VWS V14.00,2013-12-27 20:40:00,
2013-12-27 14:45:00,51.9,37.6,30.31,NE,46,5.0,8.0,58,0.00,,SKC,0.00,VWS V14.00,2013-12-27 20:45:00,
2013-12-27 14:50:00,51.9,38.0,30.31,NNE,30,4.0,8.0,59,0.00,,SKC,0.00,VWS V14.00,2013-12-27 20:50:00,
2013-12-27 14:55:00,52.0,38.6,30.31,NE,42,2.0,8.0,60,0.00,,SKC,0.00,VWS V14.00,2013-12-27 20:55:00,
2013-12-27 15:00:00,52.0,37.7,30.31,NNE,22,4.0,8.0,58,0.00,,SKC,0.00,VWS V14.00,2013-12-27 21:00:00,
2013-12-27 15:05:00,51.9,38.0,30.31,NNE,13,5.0,7.0,59,0.00,,SKC,0.00,VWS V14.00,2013-12-27 21:05:00,
2013-12-27 15:10:00,51.9,38.0,30.31,North,11,5.0,7.0,59,0.00,,SKC,0.00,VWS V14.00,2013-12-27 21:10:00,
2013-12-27 15:15:00,51.8,37.5,30.31,NNE,16,6.0,7.0,58,0.00,,SKC,0.00,VWS V14.00,2013-12-27 21:15:00,
2013-12-27 15:20:00,51.8,37.5,30.31,North,355,5.0,7.0,58,0.00,,SKC,0.00,VWS V14.00,2013-12-27 21:20:00,
2013-12-27 15:25:00,51.8,37.5,30.31,NNE,12,5.0,7.0,58,0.00,,SKC,0.00,VWS V14.00,2013-12-27 21:25:00,
2013-12-27 15:30:00,51.9,38.0,30.32,NNE,12,5.0,7.0,59,0.00,,SKC,0.00,VWS V14.00,2013-12-27 21:30:00,
2013-12-27 15:35:00,51.9,38.0,30.31,North,360,7.0,7.0,59,0.00,,SKC,0.00,VWS V14.00,2013-12-27 21:35:00,
2013-12-27 15:40:00,51.9,37.6,30.31,NNE,21,5.0,8.0,58,0.00,,SKC,0.00,VWS V14.00,2013-12-27 21:40:00,
2013-12-27 15:45:00,51.8,37.9,30.31,NNE,21,5.0,8.0,59,0.00,,SKC,0.00,VWS V14.00,2013-12-27 21:45:00,
2013-12-27 15:50:00,51.7,37.8,30.32,North,5,4.0,8.0,59,0.00,,SKC,0.00,VWS V14.00,2013-12-27 21:50:00,
2013-12-27 15:55:00,51.6,37.8,30.32,North,11,3.0,8.0,59,0.00,,SKC,0.00,VWS V14.00,2013-12-27 21:55:00,
2013-12-27 16:00:00,51.5,37.2,30.32,North,360,3.0,8.0,58,0.00,,SKC,0.00,VWS V14.00,2013-12-27 22:00:00,
2013-12-27 16:05:00,51.4,37.1,30.32,North,9,6.0,7.0,58,0.00,,SKC,0.00,VWS V14.00,2013-12-27 22:05:00,
2013-12-27 16:10:00,51.4,37.1,30.33,North,10,4.0,7.0,58,0.00,,SKC,0.00,VWS V14.00,2013-12-27 22:10:00,
2013-12-27 16:15:00,51.3,36.6,30.32,NNE,22,5.0,11.0,57,0.00,,SKC,0.00,VWS V14.00,2013-12-27 22:15:00,
2013-12-27 16:20:00,51.3,36.6,30.32,NNE,15,4.0,11.0,57,0.00,,SKC,0.00,VWS V14.00,2013-12-27 22:20:00,
2013-12-27 16:25:00,51.3,36.6,30.32,North,9,4.0,11.0,57,0.00,,SKC,0.00,VWS V14.00,2013-12-27 22:25:00,
2013-12-27 16:30:00,51.2,36.5,30.32,NE,47,3.0,11.0,57,0.00,,SKC,0.00,VWS V14.00,2013-12-27 22:30:00,
2013-12-27 16:35:00,51.2,36.5,30.32,NNE,12,4.0,11.0,57,0.00,,SKC,0.00,VWS V14.00,2013-12-27 22:35:00,
2013-12-27 16:40:00,51.0,36.3,30.32,NNE,18,5.0,11.0,57,0.00,,SKC,0.00,VWS V14.00,2013-12-27 22:40:00,
2013-12-27 16:45:00,51.0,37.2,30.33,NNE,18,3.0,11.0,59,0.00,,SKC,0.00,VWS V14.00,2013-12-27 22:45:00,
2013-12-27 16:50:00,50.8,37.0,30.32,NNE,17,4.0,11.0,59,0.00,,SKC,0.00,VWS V14.00,2013-12-27 22:50:00,
2013-12-27 16:55:00,50.8,37.0,30.32,NNE,15,3.0,11.0,59,0.00,,SKC,0.00,VWS V14.00,2013-12-27 22:55:00,
2013-12-27 17:00:00,50.6,37.2,30.32,NNE,16,3.0,11.0,60,0.00,,SKC,0.00,VWS V14.00,2013-12-27 23:00:00,
2013-12-27 17:05:00,50.5,37.2,30.32,North,5,5.0,7.0,60,0.00,,SKC,0.00,VWS V14.00,2013-12-27 23:05:00,
2013-12-27 17:10:00,50.5,37.6,30.31,NE,43,5.0,8.0,61,0.00,,SKC,0.00,VWS V14.00,2013-12-27 23:10:00,
2013-12-27 17:15:00,50.4,37.9,30.31,NNE,28,3.0,8.0,62,0.00,,SKC,0.00,VWS V14.00,2013-12-27 23:15:00,
2013-12-27 17:20:00,50.3,37.8,30.32,NNE,28,4.0,8.0,62,0.00,,SKC,0.00,VWS V14.00,2013-12-27 23:20:00,
2013-12-27 17:25:00,50.2,38.1,30.32,NNE,28,4.0,8.0,63,0.00,,SKC,0.00,VWS V14.00,2013-12-27 23:25:00,
2013-12-27 17:30:00,50.1,38.0,30.32,NNE,23,2.0,8.0,63,0.00,,SKC,0.00,VWS V14.00,2013-12-27 23:30:00,
2013-12-27 17:35:00,49.9,37.8,30.32,NNE,22,3.0,8.0,63,0.00,,SKC,0.00,VWS V14.00,2013-12-27 23:35:00,
2013-12-27 17:40:00,49.9,38.2,30.32,NNE,22,4.0,8.0,64,0.00,,SKC,0.00,VWS V14.00,2013-12-27 23:40:00,
2013-12-27 17:45:00,49.8,38.1,30.33,NNE,22,3.0,8.0,64,0.00,,SKC,0.00,VWS V14.00,2013-12-27 23:45:00,
2013-12-27 17:50:00,49.7,38.0,30.32,NNE,22,3.0,8.0,64,0.00,,SKC,0.00,VWS V14.00,2013-12-27 23:50:00,
2013-12-27 17:55:00,49.6,38.3,30.32,NNE,17,4.0,8.0,65,0.00,,SKC,0.00,VWS V14.00,2013-12-27 23:55:00,
2013-12-27 18:00:00,49.6,38.3,30.32,NNE,19,3.0,8.0,65,0.00,,SKC,0.00,VWS V14.00,2013-12-28 00:00:00,
2013-12-27 18:05:00,49.5,38.2,30.32,NNE,30,4.0,5.0,65,0.00,,SKC,0.00,VWS V14.00,2013-12-28 00:05:00,
2013-12-27 18:10:00,49.4,38.1,30.32,NE,37,1.0,5.0,65,0.00,,SKC,0.00,VWS V14.00,2013-12-28 00:10:00,
2013-12-27 18:15:00,49.4,38.1,30.32,NE,37,2.0,5.0,65,0.00,,SKC,0.00,VWS V14.00,2013-12-28 00:15:00,
2013-12-27 18:20:00,49.3,38.0,30.33,NE,37,2.0,5.0,65,0.00,,SKC,0.00,VWS V14.00,2013-12-28 00:20:00,
2013-12-27 18:25:00,49.2,38.3,30.33,NE,35,2.0,5.0,66,0.00,,SKC,0.00,VWS V14.00,2013-12-28 00:25:00,
2013-12-27 18:30:00,49.1,38.6,30.33,NE,35,2.0,5.0,67,0.00,,SKC,0.00,VWS V14.00,2013-12-28 00:30:00,
2013-12-27 18:35:00,49.0,38.5,30.33,NE,35,2.0,5.0,67,0.00,,SKC,0.00,VWS V14.00,2013-12-28 00:35:00,
2013-12-27 18:40:00,48.8,38.3,30.33,NE,35,2.0,5.0,67,0.00,,SKC,0.00,VWS V14.00,2013-12-28 00:40:00,
2013-12-27 18:45:00,48.7,38.6,30.33,NE,35,2.0,5.0,68,0.00,,SKC,0.00,VWS V14.00,2013-12-28 00:45:00,
2013-12-27 18:50:00,48.6,38.5,30.33,NE,35,1.0,5.0,68,0.00,,SKC,0.00,VWS V14.00,2013-12-28 00:50:00,
2013-12-27 18:55:00,48.6,38.5,30.33,NE,35,2.0,5.0,68,0.00,,SKC,0.00,VWS V14.00,2013-12-28 00:55:00,
2013-12-27 19:00:00,48.6,38.5,30.33,NE,35,2.0,5.0,68,0.00,,SKC,0.00,VWS V14.00,2013-12-28 01:00:00,
2013-12-27 19:05:00,48.6,38.5,30.32,NE,35,3.0,5.0,68,0.00,,SKC,0.00,VWS V14.00,2013-12-28 01:05:00,
2013-12-27 19:06:00,48.6,38.5,30.32,NE,35,2.0,5.0,68,0.00,,SKC,0.00,VWS V14.00,2013-12-28 01:06:00,
2013-12-27 19:11:00,48.6,38.5,30.32,NE,35,1.0,5.0,68,0.00,,SKC,0.00,VWS V14.00,2013-12-28 01:11:00,
2013-12-27 19:16:00,48.6,38.2,30.32,NNE,30,2.0,7.0,67,0.00,,SKC,0.00,VWS V14.00,2013-12-28 01:16:00,
2013-12-27 19:21:00,48.6,38.2,30.33,NNE,30,4.0,7.0,67,0.00,,SKC,0.00,VWS V14.00,2013-12-28 01:21:00,
2013-12-27 19:26:00,48.6,38.2,30.32,NE,36,4.0,7.0,67,0.00,,SKC,0.00,VWS V14.00,2013-12-28 01:26:00,
2013-12-27 19:31:00,48.6,37.8,30.33,NE,41,3.0,7.0,66,0.00,,SKC,0.00,VWS V14.00,2013-12-28 01:31:00,
2013-12-27 19:36:00,48.6,37.8,30.32,NE,42,5.0,7.0,66,0.00,,SKC,0.00,VWS V14.00,2013-12-28 01:36:00,
2013-12-27 19:41:00,48.6,37.8,30.33,NE,41,4.0,7.0,66,0.00,,SKC,0.00,VWS V14.00,2013-12-28 01:41:00,
2013-12-27 19:46:00,48.6,37.8,30.32,NNE,33,5.0,7.0,66,0.00,,SKC,0.00,VWS V14.00,2013-12-28 01:46:00,
2013-12-27 19:51:00,48.6,37.8,30.32,NNE,30,6.0,7.0,66,0.00,,SKC,0.00,VWS V14.00,2013-12-28 01:51:00,
2013-12-27 19:56:00,48.6,37.4,30.31,NE,36,3.0,11.0,65,0.00,,SKC,0.00,VWS V14.00,2013-12-28 01:56:00,
2013-12-27 20:01:00,48.6,37.4,30.31,NE,40,4.0,11.0,65,0.00,,SKC,0.00,VWS V14.00,2013-12-28 02:01:00,
2013-12-27 20:06:00,48.6,37.4,30.31,NE,43,3.0,10.0,65,0.00,,SKC,0.00,VWS V14.00,2013-12-28 02:06:00,
2013-12-27 20:11:00,48.7,37.1,30.31,NNE,30,6.0,10.0,64,0.00,,SKC,0.00,VWS V14.00,2013-12-28 02:11:00,
2013-12-27 20:16:00,48.8,37.2,30.31,NE,38,2.0,10.0,64,0.00,,SKC,0.00,VWS V14.00,2013-12-28 02:16:00,
2013-12-27 20:21:00,48.8,37.2,30.31,NE,38,4.0,10.0,64,0.00,,SKC,0.00,VWS V14.00,2013-12-28 02:21:00,
2013-12-27 20:26:00,48.8,37.2,30.31,NNE,33,2.0,10.0,64,0.00,,SKC,0.00,VWS V14.00,2013-12-28 02:26:00,
2013-12-27 20:31:00,48.8,37.2,30.33,NNE,30,3.0,10.0,64,0.00,,SKC,0.00,VWS V14.00,2013-12-28 02:31:00,
2013-12-27 20:36:00,48.8,37.2,30.32,NNE,30,4.0,10.0,64,0.00,,SKC,0.00,VWS V14.00,2013-12-28 02:36:00,
2013-12-27 20:41:00,48.8,37.2,30.32,NNE,32,4.0,10.0,64,0.00,,SKC,0.00,VWS V14.00,2013-12-28 02:41:00,
2013-12-27 20:46:00,48.8,37.2,30.32,NE,42,3.0,10.0,64,0.00,,SKC,0.00,VWS V14.00,2013-12-28 02:46:00,
2013-12-27 20:51:00,48.7,37.5,30.32,NE,42,2.0,10.0,65,0.00,,SKC,0.00,VWS V14.00,2013-12-28 02:51:00,
2013-12-27 20:56:00,48.6,37.4,30.33,NE,42,3.0,10.0,65,0.00,,SKC,0.00,VWS V14.00,2013-12-28 02:56:00,
2013-12-27 21:01:00,48.6,37.4,30.33,NE,42,4.0,10.0,65,0.00,,SKC,0.00,VWS V14.00,2013-12-28 03:01:00,
2013-12-27 21:06:00,48.6,37.4,30.33,NNE,24,3.0,6.0,65,0.00,,SKC,0.00,VWS V14.00,2013-12-28 03:06:00,
2013-12-27 21:11:00,48.6,37.8,30.32,NNE,24,2.0,6.0,66,0.00,,SKC,0.00,VWS V14.00,2013-12-28 03:11:00,
2013-12-27 21:16:00,48.6,37.8,30.32,NNE,24,3.0,6.0,66,0.00,,SKC,0.00,VWS V14.00,2013-12-28 03:16:00,
2013-12-27 21:21:00,48.5,37.7,30.32,NNE,24,1.0,6.0,66,0.00,,SKC,0.00,VWS V14.00,2013-12-28 03:21:00,
2013-12-27 21:26:00,48.5,37.7,30.31,NE,35,4.0,6.0,66,0.00,,SKC,0.00,VWS V14.00,2013-12-28 03:26:00,
2013-12-27 21:30:00,48.4,37.2,30.31,NE,36,6.0,8.0,65,0.00,,SKC,0.00,VWS V14.00,2013-12-28 03:30:00,
2013-12-27 21:35:00,48.5,37.3,30.31,NNE,29,4.0,8.0,65,0.00,,SKC,0.00,VWS V14.00,2013-12-28 03:35:00,
2013-12-27 21:40:00,48.5,37.7,30.31,NNE,30,3.0,8.0,66,0.00,,SKC,0.00,VWS V14.00,2013-12-28 03:40:00,
2013-12-27 21:45:00,48.4,37.6,30.31,NNE,30,2.0,8.0,66,0.00,,SKC,0.00,VWS V14.00,2013-12-28 03:45:00,
2013-12-27 21:50:00,48.5,37.7,30.31,NE,34,4.0,8.0,66,0.00,,SKC,0.00,VWS V14.00,2013-12-28 03:50:00,
2013-12-27 21:55:00,48.5,38.1,30.30,NNE,31,4.0,8.0,67,0.00,,SKC,0.00,VWS V14.00,2013-12-28 03:55:00,
2013-12-27 22:00:00,48.4,38.0,30.30,NNE,29,3.0,8.0,67,0.00,,SKC,0.00,VWS V14.00,2013-12-28 04:00:00,
2013-12-27 22:05:00,48.3,37.5,30.31,NNE,24,1.0,6.0,66,0.00,,SKC,0.00,VWS V14.00,2013-12-28 04:05:00,
2013-12-27 22:10:00,48.3,37.5,30.31,NNE,24,3.0,6.0,66,0.00,,SKC,0.00,VWS V14.00,2013-12-28 04:10:00,
2013-12-27 22:15:00,48.3,37.5,30.31,NNE,24,2.0,6.0,66,0.00,,SKC,0.00,VWS V14.00,2013-12-28 04:15:00,
2013-12-27 22:20:00,48.3,37.5,30.31,NNE,24,4.0,6.0,66,0.00,,SKC,0.00,VWS V14.00,2013-12-28 04:20:00,
2013-12-27 22:25:00,48.2,37.4,30.31,NNE,25,3.0,6.0,66,0.00,,SKC,0.00,VWS V14.00,2013-12-28 04:25:00,
2013-12-27 22:30:00,48.2,37.4,30.32,NNE,25,3.0,6.0,66,0.00,,SKC,0.00,VWS V14.00,2013-12-28 04:30:00,
2013-12-27 22:35:00,48.2,37.4,30.32,NNE,25,2.0,6.0,66,0.00,,SKC,0.00,VWS V14.00,2013-12-28 04:35:00,
2013-12-27 22:40:00,48.2,37.4,30.32,NNE,25,0.0,6.0,66,0.00,,SKC,0.00,VWS V14.00,2013-12-28 04:40:00,
2013-12-27 22:45:00,48.1,36.9,30.32,NNE,25,2.0,6.0,65,0.00,,SKC,0.00,VWS V14.00,2013-12-28 04:45:00,
2013-12-27 22:50:00,48.1,37.3,30.32,NNE,25,1.0,6.0,66,0.00,,SKC,0.00,VWS V14.00,2013-12-28 04:50:00,
2013-12-27 22:55:00,48.1,37.3,30.32,NNE,25,1.0,6.0,66,0.00,,SKC,0.00,VWS V14.00,2013-12-28 04:55:00,
2013-12-27 23:00:00,48.1,37.3,30.32,NNE,25,2.0,6.0,66,0.00,,SKC,0.00,VWS V14.00,2013-12-28 05:00:00,
2013-12-27 23:01:00,48.2,37.4,30.32,NNE,25,4.0,6.0,66,0.00,,SKC,0.00,VWS V14.00,2013-12-28 05:01:00,
2013-12-27 23:06:00,48.2,37.4,30.32,NNE,25,0.0,2.0,66,0.00,,SKC,0.00,VWS V14.00,2013-12-28 05:06:00,
2013-12-27 23:11:00,48.1,37.3,30.31,NNE,25,2.0,3.0,66,0.00,,SKC,0.00,VWS V14.00,2013-12-28 05:11:00,
2013-12-27 23:16:00,48.2,37.4,30.31,NNE,25,1.0,3.0,66,0.00,,SKC,0.00,VWS V14.00,2013-12-28 05:16:00,
2013-12-27 23:21:00,48.2,37.8,30.31,NNE,25,0.0,3.0,67,0.00,,SKC,0.00,VWS V14.00,2013-12-28 05:21:00,
2013-12-27 23:26:00,48.1,37.7,30.31,NNE,25,0.0,3.0,67,0.00,,SKC,0.00,VWS V14.00,2013-12-28 05:26:00,
2013-12-27 23:31:00,48.1,37.7,30.30,NNE,25,0.0,3.0,67,0.00,,SKC,0.00,VWS V14.00,2013-12-28 05:31:00,
2013-12-27 23:36:00,48.0,38.3,30.30,NNE,25,1.0,3.0,69,0.00,,SKC,0.00,VWS V14.00,2013-12-28 05:36:00,
2013-12-27 23:41:00,47.9,38.2,30.30,NNE,25,2.0,3.0,69,0.00,,SKC,0.00,VWS V14.00,2013-12-28 05:41:00,
2013-12-27 23:46:00,47.8,38.1,30.30,NNE,25,2.0,3.0,69,0.00,,SKC,0.00,VWS V14.00,2013-12-28 05:46:00,
2013-12-27 23:51:00,47.7,38.0,30.29,NNE,25,4.0,4.0,69,0.00,,SKC,0.00,VWS V14.00,2013-12-28 05:51:00,
2013-12-27 23:56:00,47.6,38.0,30.29,NNE,25,3.0,5.0,69,0.00,,SKC,0.00,VWS V14.00,2013-12-28 05:56:00,